createdAt,value
2017-07-24T00:00:13.916Z,57.10
2017-07-24T00:02:42.169Z,55.60
2017-07-24T00:05:10.389Z,55.30
2017-07-24T00:07:38.665Z,55.30
2017-07-24T00:10:07.670Z,57.20
2017-07-24T00:12:35.918Z,57.30
2017-07-24T00:15:04.165Z,57.60
2017-07-24T00:17:32.433Z,57.70
2017-07-24T00:20:00.688Z,57.40
2017-07-24T00:22:28.929Z,57.50
2017-07-24T00:24:57.932Z,57.60
2017-07-24T00:27:26.192Z,57.60
2017-07-24T00:29:55.193Z,58.30
2017-07-24T00:32:24.230Z,57.40
2017-07-24T00:34:52.512Z,57.40
2017-07-24T00:37:20.788Z,57.50
2017-07-24T00:39:49.022Z,57.00
2017-07-24T00:42:17.290Z,57.30
2017-07-24T00:44:46.277Z,57.40
2017-07-24T00:47:15.288Z,57.80
2017-07-24T00:49:43.529Z,57.80
2017-07-24T00:52:12.583Z,58.70
2017-07-24T00:54:40.821Z,58.10
2017-07-24T00:57:09.070Z,58.00
2017-07-24T00:59:37.321Z,58.10
2017-07-24T01:02:05.569Z,57.90
2017-07-24T01:04:33.816Z,57.10
2017-07-24T01:07:02.850Z,57.70
2017-07-24T01:09:31.105Z,57.60
2017-07-24T01:11:59.424Z,57.80
2017-07-24T01:14:27.671Z,58.10
2017-07-24T01:16:55.912Z,58.20
2017-07-24T01:19:24.923Z,57.60
2017-07-24T01:21:53.149Z,57.70
2017-07-24T01:24:21.410Z,57.80
2017-07-24T01:26:49.647Z,58.00
2017-07-24T01:29:17.938Z,57.80
2017-07-24T01:31:46.168Z,57.90
2017-07-24T01:34:15.244Z,58.30
2017-07-24T01:36:43.472Z,58.30
2017-07-24T01:39:11.725Z,58.40
2017-07-24T01:41:39.969Z,58.80
2017-07-24T01:44:08.223Z,59.10
2017-07-24T01:46:36.527Z,59.50
2017-07-24T01:49:04.768Z,60.00
2017-07-24T01:51:33.009Z,60.10
2017-07-24T01:54:01.261Z,60.00
2017-07-24T01:56:30.256Z,59.70
2017-07-24T01:58:59.273Z,59.70
2017-07-24T02:01:27.510Z,59.70
2017-07-24T02:03:55.745Z,59.60
2017-07-24T02:06:23.996Z,59.30
2017-07-24T02:08:52.233Z,58.90
2017-07-24T02:11:20.478Z,59.10
2017-07-24T02:13:48.776Z,59.20
2017-07-24T02:16:17.058Z,59.10
2017-07-24T02:18:45.289Z,58.80
2017-07-24T02:21:13.544Z,58.40
2017-07-24T02:23:41.784Z,58.40
2017-07-24T02:26:10.033Z,58.20
2017-07-24T02:28:38.264Z,58.30
2017-07-24T02:31:06.615Z,58.20
2017-07-24T02:33:34.844Z,58.50
2017-07-24T02:36:03.097Z,58.80
2017-07-24T02:38:31.332Z,59.20
2017-07-24T02:40:59.599Z,60.90
2017-07-24T02:43:27.834Z,61.70
2017-07-24T02:45:56.137Z,62.60
2017-07-24T02:48:24.376Z,63.30
2017-07-24T02:50:52.632Z,63.30
2017-07-24T02:53:21.676Z,64.70
2017-07-24T02:55:49.936Z,64.50
2017-07-24T02:58:18.168Z,64.90
2017-07-24T03:00:47.217Z,66.20
2017-07-24T03:03:15.466Z,65.40
2017-07-24T03:05:43.705Z,65.60
2017-07-24T03:08:11.944Z,66.40
2017-07-24T03:10:40.172Z,66.50
2017-07-24T03:13:08.424Z,67.00
2017-07-24T03:15:36.694Z,67.70
2017-07-24T03:18:06.552Z,68.00
2017-07-24T03:20:34.789Z,68.00
2017-07-24T03:23:03.051Z,68.20
2017-07-24T03:25:31.280Z,68.50
2017-07-24T03:27:59.557Z,68.70
2017-07-24T03:30:27.813Z,69.40
2017-07-24T03:32:56.090Z,70.10
2017-07-24T03:35:25.157Z,71.20
2017-07-24T03:37:53.396Z,71.20
2017-07-24T03:40:21.676Z,71.70
2017-07-24T03:42:49.965Z,72.10
2017-07-24T03:45:18.200Z,72.00
2017-07-24T03:47:46.448Z,72.00
2017-07-24T03:50:15.448Z,73.20
2017-07-24T03:52:43.757Z,73.20
2017-07-24T03:55:12.008Z,73.70
2017-07-24T03:57:40.280Z,74.30
2017-07-24T04:00:08.524Z,74.70
2017-07-24T04:02:36.755Z,75.90
2017-07-24T04:05:05.004Z,75.80
2017-07-24T04:07:33.243Z,75.60
2017-07-24T04:10:01.544Z,75.80
2017-07-24T04:12:30.634Z,77.10
2017-07-24T04:14:59.664Z,78.20
2017-07-24T04:17:27.905Z,77.40
2017-07-24T04:19:56.913Z,76.80
2017-07-24T04:22:25.137Z,76.70
2017-07-24T04:24:53.489Z,76.30
2017-07-24T04:27:21.735Z,76.30
2017-07-24T04:29:49.984Z,76.70
2017-07-24T04:32:18.226Z,77.20
2017-07-24T04:34:46.508Z,77.80
2017-07-24T04:37:14.755Z,77.60
2017-07-24T04:39:43.005Z,77.30
2017-07-24T04:42:11.261Z,77.40
2017-07-24T04:44:39.583Z,77.70
2017-07-24T04:47:07.847Z,78.70
2017-07-24T04:49:36.094Z,78.60
2017-07-24T04:52:04.333Z,78.60
2017-07-24T04:54:32.905Z,79.00
2017-07-24T04:57:01.125Z,79.60
2017-07-24T04:59:29.405Z,79.80
2017-07-24T05:01:57.649Z,79.40
2017-07-24T05:04:25.880Z,79.20
2017-07-24T05:06:54.160Z,79.10
2017-07-24T05:09:22.443Z,79.10
2017-07-24T05:11:50.686Z,78.50
2017-07-24T05:14:19.696Z,78.60
2017-07-24T05:16:48.733Z,78.50
2017-07-24T05:19:16.980Z,78.50
2017-07-24T05:21:45.235Z,78.90
2017-07-24T05:24:13.474Z,79.10
2017-07-24T05:26:41.724Z,78.90
2017-07-24T05:29:09.954Z,78.60
2017-07-24T05:31:38.246Z,78.30
2017-07-24T05:34:06.489Z,78.50
2017-07-24T05:36:34.793Z,78.70
2017-07-24T05:39:03.018Z,78.80
2017-07-24T05:41:31.297Z,78.60
2017-07-24T05:43:59.558Z,78.30
2017-07-24T05:46:27.793Z,78.70
2017-07-24T05:48:56.040Z,78.30
2017-07-24T05:51:24.304Z,78.70
2017-07-24T05:53:52.529Z,78.40
2017-07-24T05:56:20.790Z,78.60
2017-07-24T05:58:49.020Z,77.90
2017-07-24T06:01:17.265Z,78.00
2017-07-24T06:03:45.525Z,78.20
2017-07-24T06:06:13.782Z,78.20
2017-07-24T06:08:42.819Z,78.60
2017-07-24T06:11:11.059Z,78.60
2017-07-24T06:13:40.077Z,78.50
2017-07-24T06:16:08.338Z,78.40
2017-07-24T06:18:36.591Z,78.50
2017-07-24T06:21:05.588Z,78.90
2017-07-24T06:23:33.831Z,78.90
2017-07-24T06:26:02.123Z,79.00
2017-07-24T06:28:31.137Z,79.20
2017-07-24T06:30:59.393Z,79.20
2017-07-24T06:33:28.409Z,79.20
2017-07-24T06:35:56.652Z,79.20
2017-07-24T06:38:25.672Z,80.50
2017-07-24T06:40:53.958Z,80.40
2017-07-24T06:43:22.213Z,80.80
2017-07-24T06:45:51.250Z,80.70
2017-07-24T06:48:19.497Z,80.60
2017-07-24T06:50:47.736Z,79.50
2017-07-24T06:53:15.995Z,79.10
2017-07-24T06:55:44.256Z,79.30
2017-07-24T06:58:12.521Z,79.50
2017-07-24T07:00:40.795Z,79.30
2017-07-24T07:03:09.032Z,79.10
2017-07-24T07:05:37.294Z,78.90
2017-07-24T07:08:06.299Z,79.40
2017-07-24T07:10:35.320Z,79.60
2017-07-24T07:13:03.558Z,79.60
2017-07-24T07:15:32.593Z,80.10
2017-07-24T07:18:00.833Z,80.10
2017-07-24T07:20:29.852Z,80.40
2017-07-24T07:22:58.097Z,80.40
2017-07-24T07:25:27.108Z,80.60
2017-07-24T07:27:55.346Z,80.60
2017-07-24T07:30:23.584Z,81.00
2017-07-24T07:32:51.837Z,81.20
2017-07-24T07:35:20.101Z,80.70
2017-07-24T07:37:48.336Z,81.00
2017-07-24T07:40:16.597Z,81.10
2017-07-24T07:42:44.843Z,81.30
2017-07-24T07:45:13.120Z,81.10
2017-07-24T07:47:41.405Z,81.70
2017-07-24T07:50:09.661Z,81.50
2017-07-24T07:52:37.892Z,81.10
2017-07-24T07:55:06.161Z,80.80
2017-07-24T07:57:34.392Z,80.90
2017-07-24T08:00:02.697Z,80.40
2017-07-24T08:02:30.937Z,80.20
2017-07-24T08:04:59.189Z,80.20
2017-07-24T08:07:28.204Z,80.70
2017-07-24T08:09:56.433Z,80.10
2017-07-24T08:12:24.729Z,79.70
2017-07-24T08:14:53.745Z,78.50
2017-07-24T08:17:21.997Z,78.50
2017-07-24T08:19:51.034Z,78.50
2017-07-24T08:22:19.289Z,78.50
2017-07-24T08:24:47.529Z,77.60
2017-07-24T08:27:15.782Z,77.70
2017-07-24T08:29:44.031Z,77.30
2017-07-24T08:32:12.273Z,77.90
2017-07-24T08:34:40.523Z,77.50
2017-07-24T08:37:08.870Z,78.40
2017-07-24T08:39:37.483Z,78.20
2017-07-24T08:42:05.930Z,78.30
2017-07-24T08:44:34.527Z,77.60
2017-07-24T08:47:03.374Z,77.70
2017-07-24T08:49:32.082Z,78.80
2017-07-24T08:52:00.461Z,77.40
2017-07-24T08:54:28.729Z,77.30
2017-07-24T08:56:56.976Z,76.50
2017-07-24T08:59:25.988Z,77.40
2017-07-24T09:01:54.273Z,77.30
2017-07-24T09:04:22.550Z,76.60
2017-07-24T09:06:50.853Z,75.90
2017-07-24T09:09:19.938Z,75.50
2017-07-24T09:11:49.070Z,75.90
2017-07-24T09:14:17.334Z,75.60
2017-07-24T09:16:45.568Z,75.00
2017-07-24T09:19:13.820Z,74.90
2017-07-24T09:21:42.055Z,76.00
2017-07-24T09:24:10.301Z,75.40
2017-07-24T09:26:38.617Z,74.60
2017-07-24T09:29:06.857Z,74.30
2017-07-24T09:31:35.093Z,74.80
2017-07-24T09:34:03.361Z,74.90
2017-07-24T09:36:31.600Z,75.00
2017-07-24T09:38:59.845Z,73.50
2017-07-24T09:41:28.085Z,73.60
2017-07-24T09:43:56.339Z,73.10
2017-07-24T09:46:24.573Z,74.20
2017-07-24T09:48:52.826Z,73.50
2017-07-24T09:51:21.056Z,72.80
2017-07-24T09:53:49.300Z,69.80
2017-07-24T09:56:17.528Z,70.50
2017-07-24T09:58:45.786Z,71.70
2017-07-24T10:01:14.195Z,72.20
2017-07-24T10:03:43.193Z,72.10
2017-07-24T10:06:11.480Z,72.00
2017-07-24T10:08:39.783Z,71.10
2017-07-24T10:11:08.030Z,70.60
2017-07-24T10:13:36.286Z,69.60
2017-07-24T10:16:04.560Z,67.10
2017-07-24T10:18:32.799Z,67.20
2017-07-24T10:21:01.040Z,68.20
2017-07-24T10:23:29.309Z,68.70
2017-07-24T10:25:57.602Z,69.00
2017-07-24T10:28:26.134Z,67.10
2017-07-24T10:30:55.382Z,67.50
2017-07-24T10:33:24.340Z,67.00
2017-07-24T10:35:54.546Z,66.70
2017-07-24T10:38:23.427Z,64.40
2017-07-24T10:40:53.087Z,62.10
2017-07-24T10:43:21.708Z,62.00
2017-07-24T10:45:50.564Z,64.10
2017-07-24T10:48:19.343Z,61.90
2017-07-24T10:50:48.039Z,62.90
2017-07-24T10:53:16.571Z,61.30
2017-07-24T10:55:45.186Z,59.90
2017-07-24T10:58:13.527Z,61.40
2017-07-24T11:00:42.067Z,61.60
2017-07-24T11:03:10.457Z,60.00
2017-07-24T11:05:38.709Z,60.40
2017-07-24T11:08:07.992Z,60.00
2017-07-24T11:10:36.334Z,58.20
2017-07-24T11:13:05.353Z,60.10
2017-07-24T11:15:33.637Z,60.10
2017-07-24T11:18:01.892Z,59.50
2017-07-24T11:20:30.192Z,59.40
2017-07-24T11:22:58.470Z,59.30
2017-07-24T11:25:26.748Z,58.40
2017-07-24T11:27:55.058Z,59.00
2017-07-24T11:30:23.352Z,58.70
2017-07-24T11:32:51.657Z,58.40
2017-07-24T11:35:19.909Z,58.70
2017-07-24T11:37:48.957Z,56.60
2017-07-24T11:40:17.258Z,56.60
2017-07-24T11:42:45.509Z,58.60
2017-07-24T11:45:13.756Z,57.30
2017-07-24T11:47:42.013Z,56.30
2017-07-24T11:50:10.265Z,56.90
2017-07-24T11:52:38.564Z,55.90
2017-07-24T11:55:07.557Z,55.00
2017-07-24T11:57:35.870Z,55.00
2017-07-24T12:00:04.152Z,54.90
2017-07-24T12:02:32.410Z,53.90
2017-07-24T12:05:00.657Z,54.30
2017-07-24T12:07:29.677Z,51.70
2017-07-24T12:09:57.966Z,51.50
2017-07-24T12:12:26.240Z,52.40
2017-07-24T12:14:54.570Z,52.90
2017-07-24T12:17:23.580Z,51.30
2017-07-24T12:19:51.884Z,51.30
2017-07-24T12:22:20.126Z,51.80
2017-07-24T12:24:48.410Z,50.40
2017-07-24T12:27:16.692Z,48.90
2017-07-24T12:29:44.981Z,46.50
2017-07-24T12:32:13.240Z,45.30
2017-07-24T12:34:41.497Z,44.90
2017-07-24T12:37:10.496Z,45.80
2017-07-24T12:39:39.513Z,46.70
2017-07-24T12:42:07.748Z,46.70
2017-07-24T12:44:36.797Z,48.00
2017-07-24T12:47:05.037Z,47.40
2017-07-24T12:49:33.286Z,47.30
2017-07-24T12:52:02.292Z,47.70
2017-07-24T12:54:31.318Z,47.80
2017-07-24T12:56:59.549Z,47.80
2017-07-24T12:59:28.569Z,48.70
2017-07-24T13:01:56.797Z,48.30
2017-07-24T13:04:25.086Z,48.20
2017-07-24T13:06:53.564Z,48.00
2017-07-24T13:09:21.805Z,47.70
2017-07-24T13:11:50.039Z,48.60
2017-07-24T13:14:19.091Z,47.70
2017-07-24T13:16:47.329Z,47.70
2017-07-24T13:19:15.573Z,47.90
2017-07-24T13:21:43.854Z,48.00
2017-07-24T13:24:12.077Z,47.60
2017-07-24T13:26:40.330Z,46.80
2017-07-24T13:29:08.560Z,47.80
2017-07-24T13:31:36.860Z,48.00
2017-07-24T13:34:05.070Z,47.90
2017-07-24T13:36:33.322Z,47.00
2017-07-24T13:39:01.564Z,46.80
2017-07-24T13:41:29.846Z,47.40
2017-07-24T13:43:58.873Z,47.00
2017-07-24T13:46:27.191Z,47.00
2017-07-24T13:48:55.401Z,47.10
2017-07-24T13:51:24.457Z,49.50
2017-07-24T13:53:52.710Z,49.50
2017-07-24T13:56:20.940Z,49.50
2017-07-24T13:58:50.011Z,50.20
2017-07-24T14:01:18.245Z,50.20
2017-07-24T14:03:46.513Z,50.50
2017-07-24T14:06:14.836Z,50.10
2017-07-24T14:08:43.080Z,50.40
2017-07-24T14:11:11.323Z,51.20
2017-07-24T14:13:39.570Z,50.70
2017-07-24T14:16:07.802Z,50.30
2017-07-24T14:18:36.083Z,50.20
2017-07-24T14:21:04.326Z,51.00
2017-07-24T14:23:32.578Z,51.20
2017-07-24T14:26:01.613Z,52.10
2017-07-24T14:28:29.896Z,51.50
2017-07-24T14:30:58.147Z,52.90
2017-07-24T14:33:26.407Z,54.00
2017-07-24T14:35:55.413Z,52.10
2017-07-24T14:38:23.665Z,52.10
2017-07-24T14:40:52.666Z,50.80
2017-07-24T14:43:21.700Z,50.10
2017-07-24T14:45:49.957Z,50.20
2017-07-24T14:48:18.208Z,50.90
2017-07-24T14:50:47.254Z,51.10
2017-07-24T14:53:15.496Z,51.10
2017-07-24T14:55:43.739Z,51.70
2017-07-24T14:58:12.005Z,52.00
2017-07-24T15:00:40.233Z,52.20
2017-07-24T15:03:08.469Z,50.10
2017-07-24T15:05:37.493Z,51.50
2017-07-24T15:08:05.734Z,51.50
2017-07-24T15:10:34.751Z,55.30
2017-07-24T15:13:03.013Z,54.60
2017-07-24T15:15:32.036Z,53.40
2017-07-24T15:18:00.285Z,53.40
2017-07-24T15:20:29.301Z,52.00
2017-07-24T15:22:57.530Z,52.00
2017-07-24T15:25:25.781Z,52.30
2017-07-24T15:27:54.013Z,51.20
2017-07-24T15:30:22.271Z,51.50
2017-07-24T15:32:51.279Z,51.90
2017-07-24T15:35:19.534Z,51.90
2017-07-24T15:37:48.538Z,49.50
2017-07-24T15:40:17.549Z,48.90
2017-07-24T15:42:45.805Z,48.90
2017-07-24T15:45:14.066Z,49.50
2017-07-24T15:47:43.065Z,50.40
2017-07-24T15:50:11.340Z,50.40
2017-07-24T15:52:40.356Z,50.60
2017-07-24T15:55:08.637Z,50.50
2017-07-24T15:57:36.881Z,51.10
2017-07-24T16:00:05.903Z,52.00
2017-07-24T16:02:34.146Z,51.90
2017-07-24T16:05:03.157Z,50.90
2017-07-24T16:07:31.410Z,50.80
2017-07-24T16:09:59.675Z,51.10
2017-07-24T16:12:27.985Z,51.50
2017-07-24T16:14:56.231Z,51.70
2017-07-24T16:17:24.478Z,51.50
2017-07-24T16:19:52.714Z,51.70
2017-07-24T16:22:20.970Z,51.80
2017-07-24T16:24:50.001Z,53.90
2017-07-24T16:27:18.251Z,53.90
2017-07-24T16:29:46.485Z,55.50
2017-07-24T16:32:14.734Z,54.30
2017-07-24T16:34:42.972Z,54.40
2017-07-24T16:37:11.225Z,54.20
2017-07-24T16:39:39.459Z,55.50
2017-07-24T16:42:07.706Z,55.20
2017-07-24T16:44:35.933Z,55.30
2017-07-24T16:47:04.182Z,54.30
2017-07-24T16:49:32.426Z,55.00
2017-07-24T16:52:00.705Z,55.60
2017-07-24T16:54:28.939Z,55.50
2017-07-24T16:56:57.252Z,55.80
2017-07-24T16:59:25.507Z,56.30
2017-07-24T17:01:53.750Z,56.10
2017-07-24T17:04:22.097Z,55.80
2017-07-24T17:06:50.336Z,56.10
2017-07-24T17:09:19.345Z,57.60
2017-07-24T17:11:47.577Z,57.00
2017-07-24T17:14:15.832Z,56.70
2017-07-24T17:16:44.093Z,57.90
2017-07-24T17:19:12.367Z,57.50
2017-07-24T17:21:40.608Z,57.60
2017-07-24T17:24:09.620Z,58.20
2017-07-24T17:26:38.730Z,57.80
2017-07-24T17:29:07.040Z,57.80
2017-07-24T17:31:35.273Z,57.90
2017-07-24T17:34:03.525Z,58.40
2017-07-24T17:36:32.624Z,57.20
2017-07-24T17:39:00.894Z,57.10
2017-07-24T17:41:30.029Z,57.90
2017-07-24T17:43:58.279Z,57.90
2017-07-24T17:46:26.530Z,58.20
2017-07-24T17:48:54.769Z,58.40
2017-07-24T17:51:23.057Z,58.50
2017-07-24T17:53:51.349Z,58.60
2017-07-24T17:56:20.375Z,58.70
2017-07-24T17:58:48.885Z,57.90
2017-07-24T18:01:17.132Z,56.80
2017-07-24T18:03:45.396Z,56.30
2017-07-24T18:06:13.637Z,55.70
2017-07-24T18:08:41.930Z,57.10
2017-07-24T18:11:10.204Z,57.30
2017-07-24T18:13:39.230Z,59.00
2017-07-24T18:16:07.498Z,58.30
2017-07-24T18:18:35.782Z,58.10
2017-07-24T18:21:04.064Z,58.20
2017-07-24T18:23:32.328Z,60.00
2017-07-24T18:26:00.578Z,58.70
2017-07-24T18:28:29.638Z,60.60
2017-07-24T18:30:57.865Z,60.60
2017-07-24T18:33:26.111Z,62.20
2017-07-24T18:35:54.355Z,61.80
2017-07-24T18:38:22.593Z,61.60
2017-07-24T18:40:50.874Z,60.60
2017-07-24T18:43:19.118Z,59.00
2017-07-24T18:45:48.137Z,58.80
2017-07-24T18:48:16.397Z,58.10
2017-07-24T18:50:44.753Z,58.30
2017-07-24T18:53:12.997Z,58.50
2017-07-24T18:55:41.287Z,58.70
2017-07-24T18:58:09.559Z,59.00
2017-07-24T19:00:37.798Z,60.30
2017-07-24T19:03:06.043Z,60.50
2017-07-24T19:05:35.089Z,62.20
2017-07-24T19:08:03.337Z,61.60
2017-07-24T19:10:31.586Z,61.00
2017-07-24T19:13:00.581Z,61.10
2017-07-24T19:15:29.626Z,61.30
2017-07-24T19:17:57.865Z,61.20
2017-07-24T19:20:26.150Z,60.50
2017-07-24T19:22:54.374Z,60.20
2017-07-24T19:25:22.620Z,60.30
2017-07-24T19:27:50.879Z,59.50
2017-07-24T19:30:19.096Z,59.20
2017-07-24T19:32:47.365Z,57.00
2017-07-24T19:35:16.417Z,58.80
2017-07-24T19:37:44.686Z,58.80
2017-07-24T19:40:13.682Z,62.30
2017-07-24T19:42:41.928Z,61.60
2017-07-24T19:45:10.170Z,62.00
2017-07-24T19:47:38.455Z,62.50
2017-07-24T19:50:06.722Z,61.70
2017-07-24T19:52:34.975Z,61.30
2017-07-24T19:55:03.258Z,60.80
2017-07-24T19:57:31.555Z,61.50
2017-07-24T19:59:59.795Z,61.60
2017-07-24T20:02:28.043Z,61.50
2017-07-24T20:04:57.362Z,62.20
2017-07-24T20:07:25.649Z,62.20
2017-07-24T20:09:53.934Z,62.10
2017-07-24T20:12:22.176Z,63.50
2017-07-24T20:14:51.196Z,63.70
2017-07-24T20:17:19.472Z,63.70
2017-07-24T20:19:47.729Z,64.10
2017-07-24T20:22:16.050Z,64.60
2017-07-24T20:24:44.309Z,65.30
2017-07-24T20:27:12.557Z,66.00
2017-07-24T20:29:40.806Z,66.60
2017-07-24T20:32:09.060Z,67.50
2017-07-24T20:34:37.308Z,67.80
2017-07-24T20:37:05.571Z,68.40
2017-07-24T20:39:33.824Z,69.00
2017-07-24T20:42:02.054Z,69.00
2017-07-24T20:44:30.300Z,69.30
2017-07-24T20:46:58.538Z,68.90
2017-07-24T20:49:27.561Z,69.10
2017-07-24T20:51:55.794Z,69.00
2017-07-24T20:54:24.081Z,69.10
2017-07-24T20:56:53.191Z,68.70
2017-07-24T20:59:22.214Z,68.20
2017-07-24T21:01:50.449Z,68.10
2017-07-24T21:04:18.719Z,68.20
2017-07-24T21:06:46.943Z,68.20
2017-07-24T21:09:16.002Z,68.50
2017-07-24T21:11:44.244Z,68.50
2017-07-24T21:14:12.623Z,68.60
2017-07-24T21:16:40.841Z,68.70
2017-07-24T21:19:09.093Z,68.20
2017-07-24T21:21:37.333Z,67.70
2017-07-24T21:24:05.632Z,67.80
2017-07-24T21:26:34.645Z,68.70
2017-07-24T21:29:02.934Z,67.50
2017-07-24T21:31:31.199Z,67.50
2017-07-24T21:33:59.468Z,67.30
2017-07-24T21:36:27.730Z,67.10
2017-07-24T21:38:56.802Z,67.60
2017-07-24T21:41:25.050Z,67.60
2017-07-24T21:43:53.294Z,67.70
2017-07-24T21:46:21.544Z,66.80
2017-07-24T21:48:50.599Z,67.40
2017-07-24T21:51:18.848Z,67.40
2017-07-24T21:53:47.108Z,67.90
2017-07-24T21:56:16.109Z,68.20
2017-07-24T21:58:44.352Z,68.20
2017-07-24T22:01:12.653Z,68.70
2017-07-24T22:03:40.893Z,68.60
2017-07-24T22:06:09.149Z,68.60
2017-07-24T22:08:37.406Z,68.60
2017-07-24T22:11:05.656Z,68.90
2017-07-24T22:13:33.900Z,68.90
2017-07-24T22:16:02.934Z,69.20
2017-07-24T22:18:31.182Z,68.80
2017-07-24T22:21:00.240Z,68.70
2017-07-24T22:23:28.481Z,68.70
2017-07-24T22:25:56.752Z,68.50
2017-07-24T22:28:24.993Z,68.80
2017-07-24T22:30:54.040Z,69.40
2017-07-24T22:33:22.286Z,69.20
2017-07-24T22:35:50.544Z,69.30
2017-07-24T22:38:18.781Z,68.80
2017-07-24T22:40:47.104Z,68.80
2017-07-24T22:43:15.344Z,69.10
2017-07-24T22:45:43.602Z,69.00
2017-07-24T22:48:11.857Z,68.80
2017-07-24T22:50:40.103Z,69.10
2017-07-24T22:53:08.334Z,69.10
2017-07-24T22:55:36.588Z,69.00
2017-07-24T22:58:04.833Z,69.30
2017-07-24T23:00:33.141Z,69.20
2017-07-24T23:03:01.394Z,69.00
2017-07-24T23:05:29.640Z,69.00
2017-07-24T23:07:58.695Z,69.90
2017-07-24T23:10:26.943Z,69.80
2017-07-24T23:12:55.197Z,70.00
2017-07-24T23:15:23.439Z,70.00
2017-07-24T23:17:51.688Z,70.00
2017-07-24T23:20:19.920Z,70.00
2017-07-24T23:22:48.186Z,70.90
2017-07-24T23:25:17.201Z,69.30
2017-07-24T23:27:45.460Z,69.30
2017-07-24T23:30:14.457Z,69.30
2017-07-24T23:32:42.716Z,69.30
2017-07-24T23:35:11.750Z,69.50
2017-07-24T23:37:40.002Z,69.50
2017-07-24T23:40:08.315Z,69.60
2017-07-24T23:42:36.562Z,69.60
2017-07-24T23:45:04.902Z,70.40
2017-07-24T23:47:33.247Z,69.90
2017-07-24T23:50:01.501Z,69.90
2017-07-24T23:52:29.758Z,69.80
2017-07-24T23:54:58.006Z,70.50
2017-07-24T23:57:26.254Z,69.40
2017-07-24T23:59:54.506Z,69.50
